sensor_id;sensor_type;location;lat;lon;timestamp;temperature;humidity
40454;DHT22;26160;51.858;4.398;2022-11-20T00:01:29;-0.70;99.90
40454;DHT22;26160;51.858;4.398;2022-11-20T00:03:56;-0.70;99.90
40454;DHT22;26160;51.858;4.398;2022-11-20T00:06:30;-0.70;99.90
40454;DHT22;26160;51.858;4.398;2022-11-20T00:08:57;-0.80;99.90
40454;DHT22;26160;51.858;4.398;2022-11-20T00:11:25;-0.90;99.90
40454;DHT22;26160;51.858;4.398;2022-11-20T00:13:54;-0.90;99.90
40454;DHT22;26160;51.858;4.398;2022-11-20T00:16:23;-1.00;99.90
40454;DHT22;26160;51.858;4.398;2022-11-20T00:18:50;-1.00;99.90
40454;DHT22;26160;51.858;4.398;2022-11-20T00:21:19;-0.90;99.90
40454;DHT22;26160;51.858;4.398;2022-11-20T00:23:46;-1.00;99.90
40454;DHT22;26160;51.858;4.398;2022-11-20T00:26:14;-1.00;99.90
40454;DHT22;26160;51.858;4.398;2022-11-20T00:28:42;-1.00;99.90
40454;DHT22;26160;51.858;4.398;2022-11-20T00:31:12;-1.10;99.90
40454;DHT22;26160;51.858;4.398;2022-11-20T00:33:39;-1.20;99.90
40454;DHT22;26160;51.858;4.398;2022-11-20T00:36:07;-1.30;99.90
40454;DHT22;26160;51.858;4.398;2022-11-20T00:38:34;-1.30;99.90
40454;DHT22;26160;51.858;4.398;2022-11-20T00:41:02;-1.30;99.90
40454;DHT22;26160;51.858;4.398;2022-11-20T00:43:29;-1.30;99.90
40454;DHT22;26160;51.858;4.398;2022-11-20T00:46:00;-1.30;99.90
40454;DHT22;26160;51.858;4.398;2022-11-20T00:48:26;-1.30;99.90
40454;DHT22;26160;51.858;4.398;2022-11-20T00:50:53;-1.30;99.90
40454;DHT22;26160;51.858;4.398;2022-11-20T00:53:20;-1.30;99.90
40454;DHT22;26160;51.858;4.398;2022-11-20T00:56:02;-1.30;99.90
40454;DHT22;26160;51.858;4.398;2022-11-20T00:58:31;-1.40;99.90
40454;DHT22;26160;51.858;4.398;2022-11-20T01:01:12;-1.30;99.90
40454;DHT22;26160;51.858;4.398;2022-11-20T01:03:44;-1.40;99.90
40454;DHT22;26160;51.858;4.398;2022-11-20T01:08:38;-1.50;99.90
40454;DHT22;26160;51.858;4.398;2022-11-20T01:11:09;-1.60;99.90
40454;DHT22;26160;51.858;4.398;2022-11-20T01:13:36;-1.60;99.90
40454;DHT22;26160;51.858;4.398;2022-11-20T01:18:40;-1.50;99.90
40454;DHT22;26160;51.858;4.398;2022-11-20T01:21:13;-1.60;99.90
40454;DHT22;26160;51.858;4.398;2022-11-20T01:23:41;-1.60;99.90
40454;DHT22;26160;51.858;4.398;2022-11-20T01:26:10;-1.60;99.90
40454;DHT22;26160;51.858;4.398;2022-11-20T01:28:39;-1.60;99.90
40454;DHT22;26160;51.858;4.398;2022-11-20T01:31:19;-1.60;99.90
40454;DHT22;26160;51.858;4.398;2022-11-20T01:33:48;-1.50;99.90
40454;DHT22;26160;51.858;4.398;2022-11-20T01:36:15;-1.50;99.90
40454;DHT22;26160;51.858;4.398;2022-11-20T01:38:42;-1.60;99.90
40454;DHT22;26160;51.858;4.398;2022-11-20T01:41:10;-1.60;99.90
40454;DHT22;26160;51.858;4.398;2022-11-20T01:43:36;-1.70;99.90
40454;DHT22;26160;51.858;4.398;2022-11-20T01:48:49;-1.70;99.90
40454;DHT22;26160;51.858;4.398;2022-11-20T01:51:32;-1.70;99.90
40454;DHT22;26160;51.858;4.398;2022-11-20T01:54:02;-1.70;99.90
40454;DHT22;26160;51.858;4.398;2022-11-20T01:56:32;-1.80;99.90
40454;DHT22;26160;51.858;4.398;2022-11-20T01:59:02;-1.90;99.90
40454;DHT22;26160;51.858;4.398;2022-11-20T02:04:07;-1.90;99.90
40454;DHT22;26160;51.858;4.398;2022-11-20T02:06:47;-1.80;99.90
40454;DHT22;26160;51.858;4.398;2022-11-20T02:09:15;-1.90;99.90
40454;DHT22;26160;51.858;4.398;2022-11-20T02:11:41;-1.90;99.90
40454;DHT22;26160;51.858;4.398;2022-11-20T02:14:08;-1.80;99.90
40454;DHT22;26160;51.858;4.398;2022-11-20T02:16:37;-1.90;99.90
40454;DHT22;26160;51.858;4.398;2022-11-20T02:19:09;-1.80;99.90
40454;DHT22;26160;51.858;4.398;2022-11-20T02:21:47;-1.70;99.90
40454;DHT22;26160;51.858;4.398;2022-11-20T02:24:19;-1.80;99.90
40454;DHT22;26160;51.858;4.398;2022-11-20T02:27:08;-1.90;99.90
40454;DHT22;26160;51.858;4.398;2022-11-20T02:32:05;-1.90;99.90
40454;DHT22;26160;51.858;4.398;2022-11-20T02:34:31;-1.80;99.90
40454;DHT22;26160;51.858;4.398;2022-11-20T02:36:59;-1.80;99.90
40454;DHT22;26160;51.858;4.398;2022-11-20T02:39:27;-1.90;99.90
40454;DHT22;26160;51.858;4.398;2022-11-20T02:41:54;-1.90;99.90
40454;DHT22;26160;51.858;4.398;2022-11-20T02:44:21;-2.00;99.90
40454;DHT22;26160;51.858;4.398;2022-11-20T02:46:47;-2.10;99.90
40454;DHT22;26160;51.858;4.398;2022-11-20T02:49:13;-2.00;99.90
40454;DHT22;26160;51.858;4.398;2022-11-20T02:51:39;-1.90;99.90
40454;DHT22;26160;51.858;4.398;2022-11-20T02:54:06;-1.90;99.90
40454;DHT22;26160;51.858;4.398;2022-11-20T02:56:32;-1.90;99.90
40454;DHT22;26160;51.858;4.398;2022-11-20T02:58:58;-1.90;99.90
40454;DHT22;26160;51.858;4.398;2022-11-20T03:01:24;-2.00;99.90
40454;DHT22;26160;51.858;4.398;2022-11-20T03:03:50;-1.90;99.90
40454;DHT22;26160;51.858;4.398;2022-11-20T03:06:16;-1.90;99.90
40454;DHT22;26160;51.858;4.398;2022-11-20T03:08:43;-1.90;99.90
40454;DHT22;26160;51.858;4.398;2022-11-20T03:11:09;-1.90;99.90
40454;DHT22;26160;51.858;4.398;2022-11-20T03:13:35;-2.10;99.90
40454;DHT22;26160;51.858;4.398;2022-11-20T03:16:16;-2.10;99.90
40454;DHT22;26160;51.858;4.398;2022-11-20T03:18:43;-2.10;99.90
40454;DHT22;26160;51.858;4.398;2022-11-20T03:21:10;-2.20;99.90
40454;DHT22;26160;51.858;4.398;2022-11-20T03:23:37;-2.10;99.90
40454;DHT22;26160;51.858;4.398;2022-11-20T03:26:24;-2.20;99.90
40454;DHT22;26160;51.858;4.398;2022-11-20T03:28:52;-2.20;99.90
40454;DHT22;26160;51.858;4.398;2022-11-20T03:31:22;-2.10;99.90
40454;DHT22;26160;51.858;4.398;2022-11-20T03:33:48;-2.20;99.90
40454;DHT22;26160;51.858;4.398;2022-11-20T03:36:16;-2.20;99.90
40454;DHT22;26160;51.858;4.398;2022-11-20T03:38:43;-2.30;99.90
40454;DHT22;26160;51.858;4.398;2022-11-20T03:41:14;-2.30;99.90
40454;DHT22;26160;51.858;4.398;2022-11-20T03:43:40;-2.30;99.90
40454;DHT22;26160;51.858;4.398;2022-11-20T03:46:07;-2.30;99.90
40454;DHT22;26160;51.858;4.398;2022-11-20T03:48:33;-2.30;99.90
40454;DHT22;26160;51.858;4.398;2022-11-20T03:51:12;-2.40;99.90
40454;DHT22;26160;51.858;4.398;2022-11-20T03:53:39;-2.40;99.90
40454;DHT22;26160;51.858;4.398;2022-11-20T03:56:07;-2.40;99.90
40454;DHT22;26160;51.858;4.398;2022-11-20T03:58:36;-2.40;99.90
40454;DHT22;26160;51.858;4.398;2022-11-20T04:01:23;-2.40;99.90
40454;DHT22;26160;51.858;4.398;2022-11-20T04:03:52;-2.40;99.90
40454;DHT22;26160;51.858;4.398;2022-11-20T04:06:26;-2.40;99.90
40454;DHT22;26160;51.858;4.398;2022-11-20T04:08:56;-2.50;99.90
40454;DHT22;26160;51.858;4.398;2022-11-20T04:11:25;-2.50;99.90
40454;DHT22;26160;51.858;4.398;2022-11-20T04:13:53;-2.40;99.90
40454;DHT22;26160;51.858;4.398;2022-11-20T04:16:21;-2.40;99.90
40454;DHT22;26160;51.858;4.398;2022-11-20T04:18:47;-2.40;99.90
40454;DHT22;26160;51.858;4.398;2022-11-20T04:21:13;-2.40;99.90
40454;DHT22;26160;51.858;4.398;2022-11-20T04:23:39;-2.40;99.90
40454;DHT22;26160;51.858;4.398;2022-11-20T04:26:10;-2.30;99.90
40454;DHT22;26160;51.858;4.398;2022-11-20T04:28:37;-2.30;99.90
40454;DHT22;26160;51.858;4.398;2022-11-20T04:31:12;-2.30;99.90
40454;DHT22;26160;51.858;4.398;2022-11-20T04:33:39;-2.30;99.90
40454;DHT22;26160;51.858;4.398;2022-11-20T04:36:12;-2.30;99.90
40454;DHT22;26160;51.858;4.398;2022-11-20T04:38:40;-2.20;99.90
40454;DHT22;26160;51.858;4.398;2022-11-20T04:41:08;-2.20;99.90
40454;DHT22;26160;51.858;4.398;2022-11-20T04:43:36;-2.20;99.90
40454;DHT22;26160;51.858;4.398;2022-11-20T04:46:02;-2.30;99.90
40454;DHT22;26160;51.858;4.398;2022-11-20T04:48:29;-2.30;99.90
40454;DHT22;26160;51.858;4.398;2022-11-20T04:50:55;-2.40;99.90
40454;DHT22;26160;51.858;4.398;2022-11-20T04:53:22;-2.40;99.90
40454;DHT22;26160;51.858;4.398;2022-11-20T04:55:48;-2.40;99.90
40454;DHT22;26160;51.858;4.398;2022-11-20T04:58:15;-2.40;99.90
40454;DHT22;26160;51.858;4.398;2022-11-20T05:00:41;-2.30;99.90
40454;DHT22;26160;51.858;4.398;2022-11-20T05:03:07;-2.30;99.90
40454;DHT22;26160;51.858;4.398;2022-11-20T05:05:34;-2.30;99.90
40454;DHT22;26160;51.858;4.398;2022-11-20T05:08:01;-2.30;99.90
40454;DHT22;26160;51.858;4.398;2022-11-20T05:10:27;-2.30;99.90
40454;DHT22;26160;51.858;4.398;2022-11-20T05:12:54;-2.20;99.90
40454;DHT22;26160;51.858;4.398;2022-11-20T05:15:20;-2.20;99.90
40454;DHT22;26160;51.858;4.398;2022-11-20T05:17:50;-2.20;99.90
40454;DHT22;26160;51.858;4.398;2022-11-20T05:20:16;-2.20;99.90
40454;DHT22;26160;51.858;4.398;2022-11-20T05:22:43;-2.20;99.90
40454;DHT22;26160;51.858;4.398;2022-11-20T05:25:10;-2.30;99.90
40454;DHT22;26160;51.858;4.398;2022-11-20T05:27:39;-2.30;99.90
40454;DHT22;26160;51.858;4.398;2022-11-20T05:30:06;-2.40;99.90
40454;DHT22;26160;51.858;4.398;2022-11-20T05:32:32;-2.40;99.90
40454;DHT22;26160;51.858;4.398;2022-11-20T05:34:58;-2.40;99.90
40454;DHT22;26160;51.858;4.398;2022-11-20T05:37:24;-2.40;99.90
40454;DHT22;26160;51.858;4.398;2022-11-20T05:39:51;-2.30;99.90
40454;DHT22;26160;51.858;4.398;2022-11-20T05:42:17;-2.30;99.90
40454;DHT22;26160;51.858;4.398;2022-11-20T05:44:59;-2.30;99.90
40454;DHT22;26160;51.858;4.398;2022-11-20T05:47:27;-2.30;99.90
40454;DHT22;26160;51.858;4.398;2022-11-20T05:49:53;-2.40;99.90
40454;DHT22;26160;51.858;4.398;2022-11-20T05:52:20;-2.40;99.90
40454;DHT22;26160;51.858;4.398;2022-11-20T05:54:46;-2.40;99.90
40454;DHT22;26160;51.858;4.398;2022-11-20T05:57:12;-2.40;99.90
40454;DHT22;26160;51.858;4.398;2022-11-20T05:59:38;-2.30;99.90
40454;DHT22;26160;51.858;4.398;2022-11-20T06:02:04;-2.30;99.90
40454;DHT22;26160;51.858;4.398;2022-11-20T06:04:30;-2.40;99.90
40454;DHT22;26160;51.858;4.398;2022-11-20T06:06:56;-2.30;99.90
40454;DHT22;26160;51.858;4.398;2022-11-20T06:09:22;-2.30;99.90
40454;DHT22;26160;51.858;4.398;2022-11-20T06:11:48;-2.30;99.90
40454;DHT22;26160;51.858;4.398;2022-11-20T06:14:15;-2.30;99.90
40454;DHT22;26160;51.858;4.398;2022-11-20T06:16:41;-2.40;99.90
40454;DHT22;26160;51.858;4.398;2022-11-20T06:19:07;-2.40;99.90
40454;DHT22;26160;51.858;4.398;2022-11-20T06:21:33;-2.40;99.90
40454;DHT22;26160;51.858;4.398;2022-11-20T06:23:59;-2.30;99.90
40454;DHT22;26160;51.858;4.398;2022-11-20T06:26:26;-2.30;99.90
40454;DHT22;26160;51.858;4.398;2022-11-20T06:28:54;-2.10;99.90
40454;DHT22;26160;51.858;4.398;2022-11-20T06:31:23;-2.00;99.90
40454;DHT22;26160;51.858;4.398;2022-11-20T06:33:50;-1.90;99.90
40454;DHT22;26160;51.858;4.398;2022-11-20T06:36:17;-1.90;99.90
40454;DHT22;26160;51.858;4.398;2022-11-20T06:38:44;-1.80;99.90
40454;DHT22;26160;51.858;4.398;2022-11-20T06:41:14;-1.70;99.90
40454;DHT22;26160;51.858;4.398;2022-11-20T06:43:40;-1.60;99.90
40454;DHT22;26160;51.858;4.398;2022-11-20T06:46:08;-1.50;99.90
40454;DHT22;26160;51.858;4.398;2022-11-20T06:48:34;-1.40;99.90
40454;DHT22;26160;51.858;4.398;2022-11-20T06:51:03;-1.40;99.90
40454;DHT22;26160;51.858;4.398;2022-11-20T06:53:29;-1.30;99.90
40454;DHT22;26160;51.858;4.398;2022-11-20T06:55:56;-1.20;99.90
40454;DHT22;26160;51.858;4.398;2022-11-20T06:58:30;-1.10;99.90
40454;DHT22;26160;51.858;4.398;2022-11-20T07:01:07;-1.10;99.90
40454;DHT22;26160;51.858;4.398;2022-11-20T07:03:33;-1.10;99.90
40454;DHT22;26160;51.858;4.398;2022-11-20T07:06:00;-1.10;99.90
40454;DHT22;26160;51.858;4.398;2022-11-20T07:08:26;-1.10;99.90
40454;DHT22;26160;51.858;4.398;2022-11-20T07:11:00;-1.00;99.90
40454;DHT22;26160;51.858;4.398;2022-11-20T07:13:28;-1.00;99.90
40454;DHT22;26160;51.858;4.398;2022-11-20T07:15:54;-1.00;99.90
40454;DHT22;26160;51.858;4.398;2022-11-20T07:18:21;-0.90;99.90
40454;DHT22;26160;51.858;4.398;2022-11-20T07:20:47;-0.90;99.90
40454;DHT22;26160;51.858;4.398;2022-11-20T07:23:13;-0.80;99.90
40454;DHT22;26160;51.858;4.398;2022-11-20T07:25:39;-0.80;99.90
40454;DHT22;26160;51.858;4.398;2022-11-20T07:28:05;-0.70;99.90
40454;DHT22;26160;51.858;4.398;2022-11-20T07:30:31;-0.60;99.90
40454;DHT22;26160;51.858;4.398;2022-11-20T07:32:57;-0.60;99.90
40454;DHT22;26160;51.858;4.398;2022-11-20T07:35:24;-0.50;99.90
40454;DHT22;26160;51.858;4.398;2022-11-20T07:37:50;-0.50;99.90
40454;DHT22;26160;51.858;4.398;2022-11-20T07:40:17;-0.40;99.90
40454;DHT22;26160;51.858;4.398;2022-11-20T07:42:50;-0.30;99.90
40454;DHT22;26160;51.858;4.398;2022-11-20T07:45:17;-0.30;99.90
40454;DHT22;26160;51.858;4.398;2022-11-20T07:47:43;-0.20;99.90
40454;DHT22;26160;51.858;4.398;2022-11-20T07:50:10;-0.10;99.90
40454;DHT22;26160;51.858;4.398;2022-11-20T07:52:36;-0.10;99.90
40454;DHT22;26160;51.858;4.398;2022-11-20T07:55:03;0.00;99.90
40454;DHT22;26160;51.858;4.398;2022-11-20T07:57:29;0.00;99.90
40454;DHT22;26160;51.858;4.398;2022-11-20T07:59:56;0.10;99.90
40454;DHT22;26160;51.858;4.398;2022-11-20T08:02:25;0.10;99.90
40454;DHT22;26160;51.858;4.398;2022-11-20T08:04:51;0.20;99.90
40454;DHT22;26160;51.858;4.398;2022-11-20T08:07:17;0.30;99.90
40454;DHT22;26160;51.858;4.398;2022-11-20T08:09:43;0.30;99.90
40454;DHT22;26160;51.858;4.398;2022-11-20T08:12:17;0.30;99.90
40454;DHT22;26160;51.858;4.398;2022-11-20T08:15:03;0.40;99.90
40454;DHT22;26160;51.858;4.398;2022-11-20T08:17:29;0.40;99.90
40454;DHT22;26160;51.858;4.398;2022-11-20T08:19:55;0.50;99.90
40454;DHT22;26160;51.858;4.398;2022-11-20T08:22:21;0.60;99.90
40454;DHT22;26160;51.858;4.398;2022-11-20T08:24:47;0.60;99.90
40454;DHT22;26160;51.858;4.398;2022-11-20T08:27:14;0.70;99.90
40454;DHT22;26160;51.858;4.398;2022-11-20T08:29:40;0.70;99.90
40454;DHT22;26160;51.858;4.398;2022-11-20T08:32:06;0.80;99.90
40454;DHT22;26160;51.858;4.398;2022-11-20T08:34:32;0.80;99.90
40454;DHT22;26160;51.858;4.398;2022-11-20T08:36:59;0.90;99.90
40454;DHT22;26160;51.858;4.398;2022-11-20T08:39:25;0.90;99.90
40454;DHT22;26160;51.858;4.398;2022-11-20T08:41:51;0.90;99.90
40454;DHT22;26160;51.858;4.398;2022-11-20T08:44:17;1.00;99.90
40454;DHT22;26160;51.858;4.398;2022-11-20T08:46:43;1.10;99.90
40454;DHT22;26160;51.858;4.398;2022-11-20T08:49:11;1.10;99.90
40454;DHT22;26160;51.858;4.398;2022-11-20T08:51:39;1.20;99.90
40454;DHT22;26160;51.858;4.398;2022-11-20T08:54:05;1.30;99.90
40454;DHT22;26160;51.858;4.398;2022-11-20T08:56:32;1.40;99.90
40454;DHT22;26160;51.858;4.398;2022-11-20T08:58:59;1.50;99.90
40454;DHT22;26160;51.858;4.398;2022-11-20T09:01:25;1.60;99.90
40454;DHT22;26160;51.858;4.398;2022-11-20T09:03:52;1.60;99.90
40454;DHT22;26160;51.858;4.398;2022-11-20T09:06:18;1.60;99.90
40454;DHT22;26160;51.858;4.398;2022-11-20T09:08:44;1.70;99.90
40454;DHT22;26160;51.858;4.398;2022-11-20T09:11:11;1.70;99.90
40454;DHT22;26160;51.858;4.398;2022-11-20T09:13:37;1.70;99.90
40454;DHT22;26160;51.858;4.398;2022-11-20T09:16:05;1.70;99.90
40454;DHT22;26160;51.858;4.398;2022-11-20T09:18:32;1.80;99.90
40454;DHT22;26160;51.858;4.398;2022-11-20T09:21:00;1.80;99.90
40454;DHT22;26160;51.858;4.398;2022-11-20T09:23:30;1.70;99.90
40454;DHT22;26160;51.858;4.398;2022-11-20T09:25:56;1.80;99.90
40454;DHT22;26160;51.858;4.398;2022-11-20T09:28:25;1.70;99.90
40454;DHT22;26160;51.858;4.398;2022-11-20T09:30:52;1.80;99.90
40454;DHT22;26160;51.858;4.398;2022-11-20T09:33:18;1.80;99.90
40454;DHT22;26160;51.858;4.398;2022-11-20T09:35:44;1.80;99.90
40454;DHT22;26160;51.858;4.398;2022-11-20T09:38:11;1.80;99.90
40454;DHT22;26160;51.858;4.398;2022-11-20T09:40:43;1.70;99.90
40454;DHT22;26160;51.858;4.398;2022-11-20T09:43:52;1.70;99.90
40454;DHT22;26160;51.858;4.398;2022-11-20T09:46:11;1.70;99.90
40454;DHT22;26160;51.858;4.398;2022-11-20T09:54:18;2.10;99.90
40454;DHT22;26160;51.858;4.398;2022-11-20T09:56:55;2.10;99.90
40454;DHT22;26160;51.858;4.398;2022-11-20T09:59:46;2.10;99.90
40454;DHT22;26160;51.858;4.398;2022-11-20T10:02:28;2.20;99.90
40454;DHT22;26160;51.858;4.398;2022-11-20T10:05:04;2.20;99.90
40454;DHT22;26160;51.858;4.398;2022-11-20T10:07:40;2.10;99.90
40454;DHT22;26160;51.858;4.398;2022-11-20T10:10:16;2.30;99.90
40454;DHT22;26160;51.858;4.398;2022-11-20T10:13:02;2.30;99.90
40454;DHT22;26160;51.858;4.398;2022-11-20T10:18:23;2.30;99.90
40454;DHT22;26160;51.858;4.398;2022-11-20T10:23:55;2.30;99.90
40454;DHT22;26160;51.858;4.398;2022-11-20T10:29:09;2.30;99.90
40454;DHT22;26160;51.858;4.398;2022-11-20T10:31:40;2.30;99.90
40454;DHT22;26160;51.858;4.398;2022-11-20T10:34:23;2.40;99.90
40454;DHT22;26160;51.858;4.398;2022-11-20T10:37:06;2.50;99.90
40454;DHT22;26160;51.858;4.398;2022-11-20T10:39:41;2.60;99.90
40454;DHT22;26160;51.858;4.398;2022-11-20T10:42:11;2.70;99.90
40454;DHT22;26160;51.858;4.398;2022-11-20T10:44:43;2.70;99.90
40454;DHT22;26160;51.858;4.398;2022-11-20T10:47:30;2.70;99.90
40454;DHT22;26160;51.858;4.398;2022-11-20T10:50:03;2.70;99.90
40454;DHT22;26160;51.858;4.398;2022-11-20T10:58:26;2.90;99.90
40454;DHT22;26160;51.858;4.398;2022-11-20T11:01:25;2.90;99.90
40454;DHT22;26160;51.858;4.398;2022-11-20T11:03:54;2.80;99.90
40454;DHT22;26160;51.858;4.398;2022-11-20T11:06:34;2.80;99.90
40454;DHT22;26160;51.858;4.398;2022-11-20T11:09:10;2.90;99.90
40454;DHT22;26160;51.858;4.398;2022-11-20T11:11:38;3.00;99.90
40454;DHT22;26160;51.858;4.398;2022-11-20T11:14:11;3.00;99.90
40454;DHT22;26160;51.858;4.398;2022-11-20T11:16:50;3.10;99.90
40454;DHT22;26160;51.858;4.398;2022-11-20T11:19:16;3.20;99.90
40454;DHT22;26160;51.858;4.398;2022-11-20T11:21:51;3.30;99.90
40454;DHT22;26160;51.858;4.398;2022-11-20T11:27:11;3.40;99.90
40454;DHT22;26160;51.858;4.398;2022-11-20T11:29:38;3.30;99.90
40454;DHT22;26160;51.858;4.398;2022-11-20T11:32:06;3.30;99.90
40454;DHT22;26160;51.858;4.398;2022-11-20T11:34:33;3.30;99.90
40454;DHT22;26160;51.858;4.398;2022-11-20T11:37:01;3.40;99.90
40454;DHT22;26160;51.858;4.398;2022-11-20T11:39:30;3.40;99.90
40454;DHT22;26160;51.858;4.398;2022-11-20T11:42:00;3.50;99.90
40454;DHT22;26160;51.858;4.398;2022-11-20T11:44:34;3.60;99.90
40454;DHT22;26160;51.858;4.398;2022-11-20T12:01:20;3.80;99.90
40454;DHT22;26160;51.858;4.398;2022-11-20T12:03:46;3.70;99.90
40454;DHT22;26160;51.858;4.398;2022-11-20T12:06:15;3.70;99.90
40454;DHT22;26160;51.858;4.398;2022-11-20T12:09:02;3.70;99.90
40454;DHT22;26160;51.858;4.398;2022-11-20T12:16:52;3.80;99.90
40454;DHT22;26160;51.858;4.398;2022-11-20T12:19:20;3.80;99.90
40454;DHT22;26160;51.858;4.398;2022-11-20T12:24:57;3.90;99.90
40454;DHT22;26160;51.858;4.398;2022-11-20T12:30:19;4.00;99.90
40454;DHT22;26160;51.858;4.398;2022-11-20T12:41:49;4.10;99.90
40454;DHT22;26160;51.858;4.398;2022-11-20T12:52:53;4.30;99.90
40454;DHT22;26160;51.858;4.398;2022-11-20T12:55:41;4.30;99.90
40454;DHT22;26160;51.858;4.398;2022-11-20T12:58:32;4.30;99.90
40454;DHT22;26160;51.858;4.398;2022-11-20T13:01:24;4.40;99.90
40454;DHT22;26160;51.858;4.398;2022-11-20T13:06:48;4.50;99.90
40454;DHT22;26160;51.858;4.398;2022-11-20T13:09:17;4.50;99.90
40454;DHT22;26160;51.858;4.398;2022-11-20T13:12:10;4.50;99.90
40454;DHT22;26160;51.858;4.398;2022-11-20T13:15:07;4.50;99.90
40454;DHT22;26160;51.858;4.398;2022-11-20T13:17:46;4.50;99.90
40454;DHT22;26160;51.858;4.398;2022-11-20T13:20:16;4.50;99.90
40454;DHT22;26160;51.858;4.398;2022-11-20T13:22:47;4.50;99.90
40454;DHT22;26160;51.858;4.398;2022-11-20T13:27:58;4.60;99.90
40454;DHT22;26160;51.858;4.398;2022-11-20T13:30:26;4.60;99.90
40454;DHT22;26160;51.858;4.398;2022-11-20T13:33:08;4.60;99.90
40454;DHT22;26160;51.858;4.398;2022-11-20T13:35:37;4.50;99.90
40454;DHT22;26160;51.858;4.398;2022-11-20T13:38:14;4.50;99.90
40454;DHT22;26160;51.858;4.398;2022-11-20T13:40:58;4.60;99.90
40454;DHT22;26160;51.858;4.398;2022-11-20T13:43:37;4.60;99.90
40454;DHT22;26160;51.858;4.398;2022-11-20T13:46:08;4.60;99.90
40454;DHT22;26160;51.858;4.398;2022-11-20T13:48:40;4.60;99.90
40454;DHT22;26160;51.858;4.398;2022-11-20T13:51:14;4.60;99.90
40454;DHT22;26160;51.858;4.398;2022-11-20T13:53:57;4.50;99.90
40454;DHT22;26160;51.858;4.398;2022-11-20T13:59:28;4.60;99.90
40454;DHT22;26160;51.858;4.398;2022-11-20T14:01:55;4.70;99.90
40454;DHT22;26160;51.858;4.398;2022-11-20T14:04:31;4.70;99.90
40454;DHT22;26160;51.858;4.398;2022-11-20T14:06:59;4.80;99.90
40454;DHT22;26160;51.858;4.398;2022-11-20T14:09:30;4.80;99.90
40454;DHT22;26160;51.858;4.398;2022-11-20T14:11:57;4.80;99.90
40454;DHT22;26160;51.858;4.398;2022-11-20T14:14:28;4.90;99.90
40454;DHT22;26160;51.858;4.398;2022-11-20T14:17:15;4.90;99.90
40454;DHT22;26160;51.858;4.398;2022-11-20T14:19:44;4.90;99.90
40454;DHT22;26160;51.858;4.398;2022-11-20T14:24:40;5.00;99.90
40454;DHT22;26160;51.858;4.398;2022-11-20T14:27:13;5.00;99.90
40454;DHT22;26160;51.858;4.398;2022-11-20T14:29:40;5.00;99.90
40454;DHT22;26160;51.858;4.398;2022-11-20T14:32:09;5.00;99.90
40454;DHT22;26160;51.858;4.398;2022-11-20T14:34:40;5.00;99.90
40454;DHT22;26160;51.858;4.398;2022-11-20T14:37:12;5.00;99.90
40454;DHT22;26160;51.858;4.398;2022-11-20T14:39:42;5.10;99.90
40454;DHT22;26160;51.858;4.398;2022-11-20T14:42:20;5.10;99.90
40454;DHT22;26160;51.858;4.398;2022-11-20T14:44:48;5.00;99.90
40454;DHT22;26160;51.858;4.398;2022-11-20T14:47:19;5.10;99.90
40454;DHT22;26160;51.858;4.398;2022-11-20T14:49:46;5.10;99.90
40454;DHT22;26160;51.858;4.398;2022-11-20T14:52:18;5.10;99.90
40454;DHT22;26160;51.858;4.398;2022-11-20T14:54:46;5.10;99.90
40454;DHT22;26160;51.858;4.398;2022-11-20T14:57:32;5.10;99.90
40454;DHT22;26160;51.858;4.398;2022-11-20T15:02:43;5.20;99.90
40454;DHT22;26160;51.858;4.398;2022-11-20T15:05:09;5.20;99.90
40454;DHT22;26160;51.858;4.398;2022-11-20T15:07:39;5.20;99.90
40454;DHT22;26160;51.858;4.398;2022-11-20T15:10:26;5.20;99.90
40454;DHT22;26160;51.858;4.398;2022-11-20T15:13:01;5.20;99.90
40454;DHT22;26160;51.858;4.398;2022-11-20T15:15:41;5.30;99.90
40454;DHT22;26160;51.858;4.398;2022-11-20T15:18:20;5.30;99.90
40454;DHT22;26160;51.858;4.398;2022-11-20T15:20:48;5.30;99.90
40454;DHT22;26160;51.858;4.398;2022-11-20T15:23:16;5.40;99.90
40454;DHT22;26160;51.858;4.398;2022-11-20T15:25:44;5.40;99.90
40454;DHT22;26160;51.858;4.398;2022-11-20T15:30:44;5.40;99.90
40454;DHT22;26160;51.858;4.398;2022-11-20T15:33:10;5.50;99.90
40454;DHT22;26160;51.858;4.398;2022-11-20T15:35:38;5.50;99.90
40454;DHT22;26160;51.858;4.398;2022-11-20T15:38:04;5.50;99.90
40454;DHT22;26160;51.858;4.398;2022-11-20T15:40:31;5.50;99.90
40454;DHT22;26160;51.858;4.398;2022-11-20T15:42:57;5.50;99.90
40454;DHT22;26160;51.858;4.398;2022-11-20T15:48:03;5.60;99.90
40454;DHT22;26160;51.858;4.398;2022-11-20T15:50:36;5.50;99.90
40454;DHT22;26160;51.858;4.398;2022-11-20T15:53:03;5.50;99.90
40454;DHT22;26160;51.858;4.398;2022-11-20T15:55:30;5.50;99.90
40454;DHT22;26160;51.858;4.398;2022-11-20T15:57:56;5.60;99.90
40454;DHT22;26160;51.858;4.398;2022-11-20T16:00:22;5.70;99.90
40454;DHT22;26160;51.858;4.398;2022-11-20T16:02:48;5.70;99.90
40454;DHT22;26160;51.858;4.398;2022-11-20T16:05:15;5.70;99.90
40454;DHT22;26160;51.858;4.398;2022-11-20T16:07:42;5.70;99.90
40454;DHT22;26160;51.858;4.398;2022-11-20T16:10:08;5.70;99.90
40454;DHT22;26160;51.858;4.398;2022-11-20T16:12:34;5.80;99.90
40454;DHT22;26160;51.858;4.398;2022-11-20T16:15:19;5.80;99.90
40454;DHT22;26160;51.858;4.398;2022-11-20T16:18:04;5.90;99.90
40454;DHT22;26160;51.858;4.398;2022-11-20T16:20:30;5.90;99.90
40454;DHT22;26160;51.858;4.398;2022-11-20T16:22:56;5.90;99.90
40454;DHT22;26160;51.858;4.398;2022-11-20T16:25:22;5.90;99.90
40454;DHT22;26160;51.858;4.398;2022-11-20T16:27:48;5.80;99.90
40454;DHT22;26160;51.858;4.398;2022-11-20T16:30:15;5.70;99.90
40454;DHT22;26160;51.858;4.398;2022-11-20T16:32:41;5.60;99.90
40454;DHT22;26160;51.858;4.398;2022-11-20T16:35:07;5.70;99.90
40454;DHT22;26160;51.858;4.398;2022-11-20T16:37:33;5.60;99.90
40454;DHT22;26160;51.858;4.398;2022-11-20T16:39:59;5.60;99.90
40454;DHT22;26160;51.858;4.398;2022-11-20T16:42:25;5.60;99.90
40454;DHT22;26160;51.858;4.398;2022-11-20T16:44:51;5.50;99.90
40454;DHT22;26160;51.858;4.398;2022-11-20T16:47:17;5.40;99.90
40454;DHT22;26160;51.858;4.398;2022-11-20T16:49:44;5.30;99.90
40454;DHT22;26160;51.858;4.398;2022-11-20T16:52:10;5.20;99.90
40454;DHT22;26160;51.858;4.398;2022-11-20T16:54:36;5.10;99.90
40454;DHT22;26160;51.858;4.398;2022-11-20T16:57:02;5.10;99.90
40454;DHT22;26160;51.858;4.398;2022-11-20T16:59:28;5.10;99.90
40454;DHT22;26160;51.858;4.398;2022-11-20T17:01:54;5.00;99.90
40454;DHT22;26160;51.858;4.398;2022-11-20T17:04:20;5.00;99.90
40454;DHT22;26160;51.858;4.398;2022-11-20T17:06:46;5.00;99.90
40454;DHT22;26160;51.858;4.398;2022-11-20T17:09:13;4.90;99.90
40454;DHT22;26160;51.858;4.398;2022-11-20T17:11:39;4.80;99.90
40454;DHT22;26160;51.858;4.398;2022-11-20T17:14:05;4.80;99.90
40454;DHT22;26160;51.858;4.398;2022-11-20T17:16:33;4.80;99.90
40454;DHT22;26160;51.858;4.398;2022-11-20T17:18:59;4.90;99.90
40454;DHT22;26160;51.858;4.398;2022-11-20T17:21:26;4.80;99.90
40454;DHT22;26160;51.858;4.398;2022-11-20T17:23:52;4.90;99.90
40454;DHT22;26160;51.858;4.398;2022-11-20T17:26:20;4.80;99.90
40454;DHT22;26160;51.858;4.398;2022-11-20T17:28:53;4.70;99.90
40454;DHT22;26160;51.858;4.398;2022-11-20T17:31:19;4.70;99.90